Friday, April 29, 2016, 6:01 AM EDT

KLKU, Louisa, Louisa County Airport/freeman Field

Location: Louisa, VA, United States Lat: 38.01
Local Time: 6:01 AM EDT (10:01 GMT) Lon: -77.97
Time Zone: US/Eastern Elev: 492 ft

Show me the last for .
Show Decoded

2016-04-29 05:35 METAR KLKU 290935Z AUTO 00000KT 2SM BR OVC003 12/11 A2999 RMK AO2 =
2016-04-29 05:15 METAR KLKU 290915Z AUTO 00000KT 2 1/2SM BR OVC003 12/11 A2999 RMK AO2 =
2016-04-29 04:55 METAR KLKU 290855Z AUTO 05003KT 2 1/2SM BR OVC003 12/11 A2998 RMK AO2 =
2016-04-29 04:35 METAR KLKU 290835Z AUTO 04003KT 1 1/2SM BR OVC003 12/11 A2998 RMK AO2 =
2016-04-29 04:15 METAR KLKU 290815Z AUTO 00000KT 4SM BR OVC003 12/11 A2998 RMK AO2 =
2016-04-29 03:55 METAR KLKU 290755Z AUTO 08003KT 4SM BR BKN003 OVC008 12/11 A2997 RMK AO2 =
2016-04-29 03:30 METAR KLKU 290730Z AUTO 02004KT 2SM BR OVC003 12/12 A2997 RMK AO2 =
2016-04-29 03:15 METAR KLKU 290715Z AUTO 05005KT 2SM BR OVC003 12/12 A2995 RMK AO2 =
2016-04-29 02:55 METAR KLKU 290655Z AUTO 04005KT 2SM BR OVC003 12/12 A2995 RMK AO2 =
2016-04-29 02:35 METAR KLKU 290635Z AUTO 04004KT 1 3/4SM BR OVC003 12/12 A2995 RMK AO2 =
2016-04-29 02:15 METAR KLKU 290615Z AUTO 00000KT 2SM BR OVC003 12/12 A2996 RMK AO2 =
2016-04-29 01:55 METAR KLKU 290555Z AUTO 00000KT 4SM BR OVC003 12/12 A2997 RMK AO2 =
2016-04-29 01:35 METAR KLKU 290535Z AUTO 04004KT 2SM -RA OVC003 12/12 A2998 RMK AO2 =
2016-04-29 01:15 METAR KLKU 290515Z AUTO 04005KT 1 3/4SM BR OVC003 12/12 A2998 RMK AO2 =
2016-04-29 00:55 METAR KLKU 290455Z AUTO 04005KT 2 1/2SM BR OVC003 13/12 A2997 RMK AO2 =
2016-04-29 00:35 METAR KLKU 290435Z AUTO 06005KT 1SM BR OVC003 13/12 A2997 RMK AO2 =
2016-04-29 00:15 METAR KLKU 290415Z AUTO 08003KT 1 1/2SM BR OVC003 13/12 A2997 RMK AO2 =
2016-04-28 23:55 METAR KLKU 290355Z AUTO 05005KT 2 1/2SM BR OVC003 13/13 A2998 RMK AO2 =
2016-04-28 23:35 METAR KLKU 290335Z AUTO 06005KT 3SM BR OVC005 13/13 A2997 RMK AO2 =
2016-04-28 23:15 METAR KLKU 290315Z AUTO 06004KT 10SM OVC005 14/13 A2997 RMK AO2 =
2016-04-28 22:55 METAR KLKU 290255Z AUTO 05003KT 10SM BKN005 OVC012 14/13 A2998 RMK AO2 =
2016-04-28 22:35 METAR KLKU 290235Z AUTO 08004KT 7SM BKN005 OVC012 14/13 A2998 RMK AO2 =
2016-04-28 22:15 METAR KLKU 290215Z AUTO 07004KT 10SM OVC005 14/13 A2998 RMK AO2 =
2016-04-28 21:55 METAR KLKU 290155Z AUTO 06004KT 5SM BR OVC003 14/13 A2997 RMK AO2 P0001 =
2016-04-28 21:35 METAR KLKU 290135Z AUTO 04006KT 4SM BR OVC003 14/13 A2997 RMK AO2 P0001 =
2016-04-28 21:15 METAR KLKU 290115Z AUTO 04006KT 7SM OVC005 14/13 A2997 RMK AO2 P0001 =
2016-04-28 20:55 METAR KLKU 290055Z AUTO 04006KT 7SM -RA OVC005 14/13 A2996 RMK AO2 P0001 =
2016-04-28 20:35 METAR KLKU 290035Z AUTO 05006KT 5SM -RA OVC005 14/13 A2995 RMK AO2 P0001 =
2016-04-28 20:15 METAR KLKU 290015Z AUTO 04008KT 7SM -RA OVC005 14/13 A2994 RMK AO2 P0001 =
2016-04-28 19:55 METAR KLKU 282355Z AUTO 06006KT 10SM RA BKN005 OVC013 14/13 A2993 RMK AO2 P0024
                 =
2016-04-28 19:35 METAR KLKU 282335Z AUTO 02006KT 5SM RA BKN005 OVC012 14/14 A2995 RMK AO2 P0020 =
2016-04-28 19:15 METAR KLKU 282315Z AUTO 03005KT 7SM RA OVC005 15/14 A2994 RMK AO2 P0002 =
2016-04-28 18:55 METAR KLKU 282255Z AUTO 04003KT 10SM -RA OVC005 15/14 A2992 RMK AO2 =
2016-04-28 18:35 METAR KLKU 282235Z AUTO 05005KT 10SM OVC005 15/14 A2992 RMK AO2 =
2016-04-28 18:15 METAR KLKU 282215Z AUTO 03006KT 10SM OVC005 15/14 A2992 RMK AO2 =
2016-04-28 17:55 METAR KLKU 282155Z AUTO 03003KT 10SM -RA OVC005 16/14 A2992 RMK AO2 P0006 =
2016-04-28 17:35 METAR KLKU 282135Z AUTO 00000KT 7SM RA OVC005 15/14 A2991 RMK AO2 =
2016-04-28 17:15 METAR KLKU 282115Z AUTO 13006KT 7SM BKN007 OVC075 15/14 A2990 RMK AO2 =
2016-04-28 16:55 METAR KLKU 282055Z AUTO 09005KT 2 1/2SM BR OVC006 16/14 A2992 RMK AO2 VIS 1
                 3/4V5 =
2016-04-28 16:35 METAR KLKU 282035Z AUTO 03007KT 3SM BR OVC006 16/14 A2993 RMK AO2 =
2016-04-28 16:15 METAR KLKU 282015Z AUTO 03004KT 2 1/2SM BR OVC006 16/14 A2992 RMK AO2 =
2016-04-28 15:55 METAR KLKU 281955Z AUTO 03004KT 3SM BR OVC006 16/15 A2992 RMK AO2 =
2016-04-28 15:35 METAR KLKU 281935Z AUTO 10004KT 1 3/4SM BR OVC006 16/15 A2992 RMK AO2 =
2016-04-28 15:15 METAR KLKU 281915Z AUTO 07006KT 2 1/2SM BR OVC006 16/14 A2992 RMK AO2 =
2016-04-28 14:55 METAR KLKU 281855Z AUTO 00000KT 4SM BR OVC008 16/14 A2993 RMK AO2 =
2016-04-28 14:35 METAR KLKU 281835Z AUTO 07003KT 7SM OVC009 16/15 A2993 RMK AO2 =
2016-04-28 14:15 METAR KLKU 281815Z AUTO 08004KT 3SM BR OVC007 16/15 A2993 RMK AO2 =
2016-04-28 13:55 METAR KLKU 281755Z AUTO 08003KT 2 1/2SM BR BKN007 OVC011 16/15 A2994 RMK AO2 VIS
                 2V3 =
2016-04-28 13:35 METAR KLKU 281735Z AUTO 08003KT 7SM OVC007 16/14 A2994 RMK AO2 =
2016-04-28 13:15 METAR KLKU 281715Z AUTO 10004KT 2SM BR BKN005 OVC010 16/15 A2994 RMK AO2 =
2016-04-28 12:55 METAR KLKU 281655Z AUTO 09004KT 1 1/4SM BR OVC008 16/14 A2995 RMK AO2 =
2016-04-28 12:35 METAR KLKU 281635Z AUTO 00000KT 1 1/2SM BR OVC006 15/14 A2996 RMK AO2 =
2016-04-28 12:15 METAR KLKU 281615Z AUTO 07004KT 1 3/4SM BR OVC006 15/14 A2996 RMK AO2 =
2016-04-28 11:55 METAR KLKU 281555Z AUTO 07003KT 1 3/4SM BR OVC004 15/14 A2996 RMK AO2 =
2016-04-28 11:35 METAR KLKU 281535Z AUTO 10004KT 2 1/2SM BR OVC004 15/14 A2996 RMK AO2 =
2016-04-28 11:15 METAR KLKU 281515Z AUTO 07003KT 5SM BR OVC004 15/14 A2996 RMK AO2 =
2016-04-28 10:55 METAR KLKU 281455Z AUTO 00000KT 4SM BR OVC004 15/14 A2996 RMK AO2 =
2016-04-28 10:35 METAR KLKU 281435Z AUTO 08005KT 2SM DZ OVC004 15/14 A2994 RMK AO2 =
2016-04-28 10:15 METAR KLKU 281415Z AUTO 00000KT 2 1/2SM -RA OVC004 15/14 A2995 RMK AO2 =
2016-04-28 09:55 METAR KLKU 281355Z AUTO 11004KT 2SM -DZ OVC004 15/14 A2995 RMK AO2 P0001 =
2016-04-28 09:35 METAR KLKU 281335Z AUTO 11003KT 2SM BR OVC004 14/14 A2996 RMK AO2 =
2016-04-28 09:15 METAR KLKU 281315Z AUTO 00000KT 3SM -RA OVC004 14/14 A2996 RMK AO2 =
2016-04-28 08:55 METAR KLKU 281255Z AUTO 00000KT 2 1/2SM BR OVC004 14/14 A2996 RMK AO2 =
2016-04-28 08:35 METAR KLKU 281235Z AUTO 00000KT 3SM BR OVC004 14/14 A2995 RMK AO2 =
2016-04-28 08:15 METAR KLKU 281215Z AUTO 05003KT 5SM BR OVC004 14/14 A2995 RMK AO2 =
2016-04-28 07:55 METAR KLKU 281155Z AUTO 03004KT 4SM RA OVC004 14/14 A2994 RMK AO2 P0004 =
2016-04-28 07:35 METAR KLKU 281135Z AUTO 08005KT 2 1/2SM BR OVC004 14/14 A2993 RMK AO2 P0004 =
2016-04-28 07:15 METAR KLKU 281115Z AUTO 06004KT 4SM -RA OVC002 14/14 A2993 RMK AO2 P0003 =
2016-04-28 06:55 METAR KLKU 281055Z AUTO 09004KT 2SM -DZ OVC004 14/14 A2992 RMK AO2 P0002 =
2016-04-28 06:35 METAR KLKU 281035Z AUTO 00000KT 4SM -DZ OVC004 14/14 A2991 RMK AO2 P0002 =
2016-04-28 06:15 METAR KLKU 281015Z AUTO 00000KT 4SM -RA BKN004 OVC009 14/14 A2991 RMK AO2 P0001
                 =

Support USWX by starting your Amazon purchase here.